Adams, Nebraska
Current Conditions -  °F | °C
As of 4:15 AM on Friday 24 Oct 2014 (Local Time) from KBIE Reporting Station
Haze Haze  
Wind Chill: 58°   Ceiling: Unl
Heat Index: 58°   Visibility: 5mi
Dew Point: 57°   Wind: 7mph
Humidity: 96%   Direction: 190°S
Pressure: 30"   Gusts: NA
Location:  40.46°N, 96.51°W
Report Text: KBIE 240915Z AUTO 19006KT 5SM BR CLR 15/14 A3000 RMK AO2 T01460140
Loading
Personal Weather Stations






























Interactive Weather Map
Tropical Storm Tracking
New forecast layout! Learn more

10-Day Weather Forecast

Advertisements
Track Severe Weather on mobile